Time;durP1;ratioP1;P1;durP2;ratioP2;P2;SDS_P1;SDS_P2;PMS_P1;PMS_P2;Temp;Humidity;BMP_temperature;BMP_pressure;BME280_temperature;BME280_humidity;BME280_pressure;Samples;Min_cycle;Max_cycle;Signal;HPM_P1;HPM_P2
2022/09/27 00:01:13;;;;;;;1.40;1.08;;;;;;;8.34;100.00;97825.91;5059790;28;20029;-82
2022/09/27 00:03:39;;;;;;;4.13;1.10;;;;;;;8.14;100.00;97798.03;5045103;28;20036;-82
2022/09/27 00:06:12;;;;;;;3.50;1.10;;;;;;;8.37;100.00;97820.25;5060745;28;20158;-82
2022/09/27 00:08:37;;;;;;;1.90;1.10;;;;;;;8.20;100.00;97814.72;5059789;28;20122;-83
2022/09/27 00:11:06;;;;;;;1.92;1.08;;;;;;;7.87;100.00;97813.03;5063300;28;20469;-82
2022/09/27 00:13:32;;;;;;;1.95;1.10;;;;;;;7.88;100.00;97819.09;5063165;28;20394;-82
2022/09/27 00:15:59;;;;;;;1.98;1.20;;;;;;;7.74;100.00;97824.34;5056244;28;20029;-81
2022/09/27 00:18:26;;;;;;;4.40;1.30;;;;;;;7.83;100.00;97815.25;5043975;28;20039;-82
2022/09/27 00:20:52;;;;;;;1.38;1.05;;;;;;;7.77;100.00;97802.25;5063232;28;20060;-82
2022/09/27 00:23:18;;;;;;;1.33;0.90;;;;;;;8.11;100.00;97813.34;5059921;28;20360;-81
2022/09/27 00:25:54;;;;;;;1.17;0.90;;;;;;;8.27;100.00;97818.06;5059105;28;20032;-81
2022/09/27 00:28:20;;;;;;;5.07;1.40;;;;;;;8.23;100.00;97818.69;5063355;28;20052;-83
2022/09/27 00:30:45;;;;;;;1.75;1.05;;;;;;;8.21;100.00;97812.88;5059353;28;20036;-82
2022/09/27 00:33:11;;;;;;;2.25;1.10;;;;;;;8.36;100.00;97820.47;5062109;28;20078;-82
2022/09/27 00:35:36;;;;;;;1.75;1.00;;;;;;;8.13;100.00;97793.81;5063104;28;20375;-83
2022/09/27 00:38:02;;;;;;;2.13;1.23;;;;;;;8.24;100.00;97807.22;5044595;28;20036;-82
2022/09/27 00:40:28;;;;;;;4.30;1.00;;;;;;;8.37;100.00;97801.94;5062208;28;20142;-82
2022/09/27 00:42:54;;;;;;;3.97;1.13;;;;;;;8.05;100.00;97767.91;5059607;28;20035;-81
2022/09/27 00:45:21;;;;;;;3.28;1.33;;;;;;;8.23;100.00;97795.16;5058341;28;20101;-82
2022/09/27 00:47:49;;;;;;;3.65;1.27;;;;;;;8.15;100.00;97798.84;5059117;28;20060;-82
2022/09/27 00:50:38;;;;;;;1.98;1.10;;;;;;;7.85;100.00;97783.72;5060745;28;20108;-81
2022/09/27 00:53:13;;;;;;;1.95;1.30;;;;;;;7.69;100.00;97795.44;5054797;28;20028;-82
2022/09/27 00:55:43;;;;;;;0.98;0.90;;;;;;;7.39;100.00;97790.69;5062927;28;20072;-82
2022/09/27 00:58:12;;;;;;;1.92;1.30;;;;;;;7.28;100.00;97802.56;5041555;28;20033;-82
2022/09/27 01:00:41;;;;;;;3.30;1.00;;;;;;;7.29;100.00;97802.38;5061224;28;20043;-83
2022/09/27 01:03:11;;;;;;;1.95;1.08;;;;;;;7.23;100.00;97779.66;5058594;28;20074;-82
2022/09/27 01:05:38;;;;;;;2.00;1.23;;;;;;;7.17;100.00;97782.28;5058577;28;20067;-81
2022/09/27 01:08:04;;;;;;;9.82;1.48;;;;;;;7.19;100.00;97790.75;5061104;28;20025;-82
2022/09/27 01:10:39;;;;;;;4.03;1.30;;;;;;;7.12;100.00;97769.88;5059258;28;20388;-82
2022/09/27 01:13:27;;;;;;;2.90;1.08;;;;;;;7.18;100.00;97784.72;5046079;28;20028;-81
2022/09/27 01:15:58;;;;;;;4.15;1.33;;;;;;;7.22;100.00;97780.69;5055882;28;20090;-81
2022/09/27 01:18:32;;;;;;;4.93;1.73;;;;;;;7.09;100.00;97785.94;5061351;28;20028;-81
2022/09/27 01:20:57;;;;;;;;;;;;;;;7.11;100.00;97783.94;5061937;28;20108;-82
2022/09/27 01:23:57;;;;;;;5.10;1.35;;;;;;;7.03;100.00;97782.31;5059974;28;20359;-81
2022/09/27 01:26:28;;;;;;;5.90;1.75;;;;;;;7.09;100.00;97781.50;5062405;28;20036;-82
2022/09/27 01:29:12;;;;;;;4.90;1.42;;;;;;;7.00;100.00;97761.88;5058235;28;20036;-81
2022/09/27 01:31:44;;;;;;;5.60;1.75;;;;;;;6.96;100.00;97781.50;5059364;28;20028;-81
2022/09/27 01:34:19;;;;;;;3.95;1.30;;;;;;;7.04;100.00;97778.72;5061625;28;20033;-81
2022/09/27 01:37:06;;;;;;;5.32;1.35;;;;;;;7.04;100.00;97770.88;5057760;28;20025;-81
2022/09/27 01:39:49;;;;;;;4.72;1.52;;;;;;;6.92;100.00;97770.69;5061950;28;20025;-81
2022/09/27 01:42:26;;;;;;;4.32;2.08;;;;;;;6.86;100.00;97766.28;5060089;28;20107;-80
2022/09/27 01:45:10;;;;;;;7.68;1.67;;;;;;;6.75;100.00;97764.28;5064176;28;20028;-82
2022/09/27 01:47:41;;;;;;;4.97;2.13;;;;;;;6.74;100.00;97758.25;5062383;28;20072;-82
2022/09/27 01:50:13;;;;;;;3.40;1.90;;;;;;;6.83;100.00;97751.03;5062933;28;20029;-82
2022/09/27 01:53:05;;;;;;;5.68;2.15;;;;;;;6.83;100.00;97748.41;5061138;28;20043;-82
2022/09/27 01:55:35;;;;;;;4.88;2.40;;;;;;;6.69;100.00;97743.22;5060169;28;20513;-82
2022/09/27 01:58:20;;;;;;;7.95;3.03;;;;;;;6.64;100.00;97731.78;5064458;28;20382;-82
2022/09/27 02:00:48;;;;;;;5.18;3.90;;;;;;;6.56;100.00;97735.41;5064412;28;20055;-80
2022/09/27 02:03:46;;;;;;;15.68;4.28;;;;;;;6.68;100.00;97733.81;5065796;28;20039;-80
2022/09/27 02:06:21;;;;;;;4.50;2.92;;;;;;;6.59;100.00;97714.13;5037158;28;20510;-82
2022/09/27 02:08:59;;;;;;;7.60;3.00;;;;;;;6.62;100.00;97718.94;5065909;28;20477;-80
2022/09/27 02:11:26;;;;;;;7.40;2.67;;;;;;;6.64;100.00;97711.72;5063536;28;20043;-82
2022/09/27 02:14:23;;;;;;;9.48;2.70;;;;;;;6.71;100.00;97720.34;5059638;28;20513;-82
2022/09/27 02:16:57;;;;;;;7.05;2.55;;;;;;;6.71;100.00;97720.34;5048734;28;20045;-81
2022/09/27 02:19:38;;;;;;;18.92;2.90;;;;;;;6.86;100.00;97717.53;5065095;28;20111;-80
2022/09/27 02:22:46;;;;;;;5.38;2.65;;;;;;;7.02;100.00;97712.06;5060205;28;20443;-83
2022/09/27 02:25:42;;;;;;;8.52;2.22;;;;;;;7.11;100.00;97695.22;5047733;28;20434;-81
2022/09/27 02:28:31;;;;;;;16.83;3.15;;;;;;;7.16;100.00;97690.16;5060555;28;20040;-83
2022/09/27 02:30:56;;;;;;;11.05;2.45;;;;;;;7.29;100.00;97684.91;5062239;28;20032;-82
2022/09/27 02:33:35;;;;;;;8.98;2.10;;;;;;;7.36;100.00;97684.06;5063773;28;20024;-83
2022/09/27 02:36:00;;;;;;;13.02;2.80;;;;;;;7.43;100.00;97685.66;5062822;28;20054;-83
2022/09/27 02:38:26;;;;;;;9.98;3.65;;;;;;;7.42;100.00;97675.41;5065547;28;20071;-83
2022/09/27 02:40:52;;;;;;;10.63;2.88;;;;;;;7.49;100.00;97660.53;5063940;28;20033;-81
2022/09/27 02:43:20;;;;;;;7.82;2.97;;;;;;;7.50;100.00;97656.91;5062155;28;20120;-80
2022/09/27 02:45:58;;;;;;;8.95;2.45;;;;;;;7.48;100.00;97643.25;5046122;28;20102;-79
2022/09/27 02:48:33;;;;;;;12.25;2.22;;;;;;;7.49;100.00;97651.88;5063668;28;20536;-82
2022/09/27 02:51:04;;;;;;;7.18;2.50;;;;;;;7.52;100.00;97660.09;5060698;28;20029;-82
2022/09/27 02:53:56;;;;;;;10.57;2.10;;;;;;;7.59;100.00;97654.84;5061611;28;20028;-81
2022/09/27 02:56:53;;;;;;;6.28;2.13;;;;;;;7.63;100.00;97639.53;5062126;28;20063;-80
2022/09/27 02:59:43;;;;;;;8.75;2.13;;;;;;;7.79;100.00;97649.50;5060280;28;20339;-80
2022/09/27 03:02:18;;;;;;;16.05;2.65;;;;;;;7.67;100.00;97651.19;5058471;28;20040;-80
2022/09/27 03:05:05;;;;;;;9.23;2.83;;;;;;;7.66;100.00;97626.06;5059925;28;20386;-80
2022/09/27 03:07:31;;;;;;;12.77;2.53;;;;;;;7.67;100.00;97619.84;5043327;28;20474;-81
2022/09/27 03:09:57;;;;;;;11.57;3.78;;;;;;;7.65;100.00;97620.06;5060627;28;20029;-80
2022/09/27 03:12:26;;;;;;;16.13;2.35;;;;;;;7.65;100.00;97624.47;5061388;28;20032;-79
2022/09/27 03:14:57;;;;;;;16.08;2.75;;;;;;;7.77;100.00;97620.19;5062357;28;20435;-82
2022/09/27 03:17:24;;;;;;;19.08;3.22;;;;;;;7.52;100.00;97623.56;5063034;28;20055;-81
2022/09/27 03:19:49;;;;;;;17.30;2.97;;;;;;;7.58;100.00;97612.25;5063860;28;20032;-82
2022/09/27 03:22:15;;;;;;;13.05;2.13;;;;;;;7.65;100.00;97607.00;5061336;28;20029;-81
2022/09/27 03:24:41;;;;;;;11.98;4.05;;;;;;;7.75;100.00;97611.75;5063782;28;20123;-81
2022/09/27 03:27:07;;;;;;;12.57;2.10;;;;;;;7.79;100.00;97601.69;5061530;28;20028;-81
2022/09/27 03:29:33;;;;;;;12.25;2.50;;;;;;;7.73;100.00;97587.66;5060908;28;20029;-81
2022/09/27 03:31:59;;;;;;;13.10;2.00;;;;;;;7.82;100.00;97606.50;5062915;28;20035;-82
2022/09/27 03:34:24;;;;;;;12.80;2.78;;;;;;;7.87;100.00;97588.38;5063348;28;20031;-80
2022/09/27 03:36:50;;;;;;;10.82;2.45;;;;;;;7.78;100.00;97590.44;5062368;28;20529;-79
2022/09/27 03:39:15;;;;;;;8.90;2.03;;;;;;;7.95;100.00;97592.53;5048505;28;20797;-80
2022/09/27 03:41:41;;;;;;;13.98;2.45;;;;;;;8.03;100.00;97588.84;5063700;28;20079;-79
2022/09/27 03:44:07;;;;;;;12.90;2.30;;;;;;;8.09;100.00;97611.50;5046124;28;20025;-81
2022/09/27 03:46:33;;;;;;;8.68;2.33;;;;;;;7.89;100.00;97588.16;5065224;28;20516;-81
2022/09/27 03:48:59;;;;;;;15.70;3.05;;;;;;;7.89;100.00;97586.34;5060466;28;20088;-80
2022/09/27 03:51:26;;;;;;;11.30;2.30;;;;;;;7.83;100.00;97589.81;5063870;28;20028;-82
2022/09/27 03:53:51;;;;;;;10.35;2.20;;;;;;;8.03;100.00;97587.03;5060305;28;21861;-80
2022/09/27 03:56:17;;;;;;;16.40;2.92;;;;;;;7.99;100.00;97581.44;5061273;28;20033;-83
2022/09/27 03:58:42;;;;;;;11.07;2.55;;;;;;;7.80;100.00;97591.03;5063302;28;20037;-83
2022/09/27 04:01:08;;;;;;;10.75;2.88;;;;;;;7.80;100.00;97588.41;5062050;28;20051;-83
2022/09/27 04:03:35;;;;;;;13.38;2.70;;;;;;;7.84;100.00;97592.19;5062524;28;20033;-82
2022/09/27 04:06:02;;;;;;;8.95;2.20;;;;;;;7.89;100.00;97586.34;5060859;28;20149;-83
2022/09/27 04:08:29;;;;;;;8.43;2.33;;;;;;;7.63;100.00;97582.09;5059275;28;20119;-82
2022/09/27 04:10:55;;;;;;;9.80;2.40;;;;;;;7.64;100.00;97573.25;5059872;28;20036;-80
2022/09/27 04:13:22;;;;;;;12.65;2.53;;;;;;;7.79;100.00;97596.47;5060217;28;20031;-82
2022/09/27 04:15:48;;;;;;;9.10;2.47;;;;;;;7.60;100.00;97582.53;5063635;28;20041;-81
2022/09/27 04:18:13;;;;;;;17.10;2.70;;;;;;;7.55;100.00;97560.47;5060572;28;20039;-82
2022/09/27 04:20:39;;;;;;;14.82;2.53;;;;;;;7.69;100.00;97578.66;5060177;28;20028;-83
2022/09/27 04:23:05;;;;;;;8.93;3.10;;;;;;;7.42;100.00;97586.66;5058781;28;20501;-82
2022/09/27 04:25:34;;;;;;;10.70;2.70;;;;;;;7.43;100.00;97577.81;5063081;28;20033;-81
2022/09/27 04:28:01;;;;;;;13.73;3.10;;;;;;;7.35;100.00;97557.97;5057102;28;20029;-79
2022/09/27 04:30:28;;;;;;;14.10;3.40;;;;;;;7.14;100.00;97559.88;5060441;28;20086;-81
2022/09/27 04:32:54;;;;;;;8.98;2.78;;;;;;;7.27;100.00;97566.88;5058855;28;20482;-81
2022/09/27 04:38:04;;;;;;;14.85;2.95;;;;;;;7.17;100.00;97557.88;5065266;28;20028;-80
2022/09/27 04:40:32;;;;;;;13.75;3.25;;;;;;;7.04;100.00;97540.47;5060410;28;20025;-80
2022/09/27 04:42:58;;;;;;;11.23;2.50;;;;;;;7.24;100.00;97563.88;5063365;28;20115;-81
2022/09/27 04:45:23;;;;;;;13.25;3.67;;;;;;;7.22;100.00;97556.22;5042835;28;20108;-81
2022/09/27 04:47:49;;;;;;;22.90;3.72;;;;;;;7.24;100.00;97543.78;5061548;28;20426;-81
2022/09/27 04:50:16;;;;;;;11.98;3.08;;;;;;;7.11;100.00;97549.09;5062524;28;20537;-81
2022/09/27 04:52:42;;;;;;;13.75;3.78;;;;;;;7.06;100.00;97552.31;5065166;28;20039;-81
2022/09/27 04:55:09;;;;;;;13.80;4.05;;;;;;;7.12;100.00;97550.69;5060304;28;20025;-81
2022/09/27 04:57:35;;;;;;;13.82;4.38;;;;;;;6.91;100.00;97529.13;5060292;28;20037;-82
2022/09/27 05:00:04;;;;;;;11.55;3.63;;;;;;;7.14;100.00;97543.44;5058884;28;20062;-81
2022/09/27 05:02:30;;;;;;;19.85;5.10;;;;;;;7.03;100.00;97541.47;5059323;28;20029;-82
2022/09/27 05:04:58;;;;;;;13.40;4.30;;;;;;;7.12;100.00;97532.41;5062699;28;20047;-80
2022/09/27 05:07:26;;;;;;;15.32;4.80;;;;;;;7.07;100.00;97533.03;5058576;28;20502;-80
2022/09/27 05:09:52;;;;;;;25.08;5.78;;;;;;;7.09;100.00;97514.56;5059931;28;20364;-79
2022/09/27 05:12:19;;;;;;;20.95;5.55;;;;;;;7.05;100.00;97526.41;5062505;28;20503;-81
2022/09/27 05:14:44;;;;;;;22.83;5.40;;;;;;;7.08;100.00;97534.63;5058831;28;20052;-80
2022/09/27 05:17:11;;;;;;;20.67;5.82;;;;;;;6.96;100.00;97516.25;5062777;28;20029;-80
2022/09/27 05:19:38;;;;;;;20.83;5.13;;;;;;;6.96;100.00;97518.84;5064720;28;20028;-82
2022/09/27 05:22:05;;;;;;;15.38;5.20;;;;;;;7.04;100.00;97523.03;5064960;28;20060;-80
2022/09/27 05:24:32;;;;;;;19.08;5.60;;;;;;;7.13;100.00;97526.19;5065064;28;20031;-80
2022/09/27 05:26:59;;;;;;;34.92;7.82;;;;;;;7.06;100.00;97541.88;5063854;28;20042;-80
2022/09/27 05:29:24;;;;;;;12.50;4.95;;;;;;;7.05;100.00;97529.03;5065797;28;20028;-82
2022/09/27 05:31:50;;;;;;;12.82;4.93;;;;;;;7.14;100.00;97535.63;5060572;28;20086;-82
2022/09/27 05:34:16;;;;;;;16.75;5.20;;;;;;;7.39;100.00;97538.28;5059074;28;20029;-81
2022/09/27 05:36:42;;;;;;;14.27;5.60;;;;;;;7.25;100.00;97529.72;5063566;28;20064;-85
2022/09/27 05:39:10;;;;;;;17.42;5.38;;;;;;;7.13;100.00;97531.41;5062921;28;20115;-84
2022/09/27 05:41:36;;;;;;;17.48;5.15;;;;;;;7.02;100.00;97526.84;5061421;28;20040;-84
2022/09/27 05:44:01;;;;;;;11.57;4.88;;;;;;;7.14;100.00;97518.13;5065388;28;20079;-83
2022/09/27 05:46:28;;;;;;;14.40;4.32;;;;;;;7.05;100.00;97513.38;5062038;28;20559;-82
2022/09/27 05:48:54;;;;;;;16.52;4.95;;;;;;;7.19;100.00;97509.69;5062381;28;20025;-85
2022/09/27 05:51:55;;;;;;;14.82;4.07;;;;;;;7.42;100.00;97506.53;5063947;28;20032;-85
2022/09/27 05:54:20;;;;;;;11.05;3.92;;;;;;;7.22;100.00;97504.03;5064286;28;20032;-84
2022/09/27 05:56:46;;;;;;;11.52;3.80;;;;;;;7.48;100.00;97528.38;5070331;28;20029;-85
2022/09/27 05:59:11;;;;;;;13.57;3.72;;;;;;;7.36;100.00;97511.78;5066638;28;20028;-85
2022/09/27 06:01:37;;;;;;;8.95;2.83;;;;;;;7.48;100.00;97527.56;5065033;28;20083;-85
2022/09/27 06:04:04;;;;;;;14.73;3.22;;;;;;;7.26;100.00;97515.66;5061779;28;20048;-85
2022/09/27 06:06:30;;;;;;;12.05;3.40;;;;;;;7.34;100.00;97522.44;5065995;28;20108;-84
2022/09/27 06:08:56;;;;;;;8.77;2.85;;;;;;;7.34;100.00;97521.66;5064917;28;20058;-83
2022/09/27 06:11:22;;;;;;;10.20;3.30;;;;;;;7.29;100.00;97520.47;5047862;28;20025;-84
2022/09/27 06:13:48;;;;;;;16.10;2.97;;;;;;;7.40;100.00;97531.25;5068563;28;20072;-83
2022/09/27 06:16:14;;;;;;;13.80;3.70;;;;;;;7.37;100.00;97529.88;5059360;28;20064;-83
2022/09/27 06:18:41;;;;;;;7.28;2.63;;;;;;;7.50;100.00;97547.25;5062599;28;20108;-83
2022/09/27 06:21:07;;;;;;;8.75;2.95;;;;;;;7.75;100.00;97538.63;5064152;28;20032;-84
2022/09/27 06:23:32;;;;;;;27.75;3.90;;;;;;;7.81;100.00;97550.81;5061038;28;20072;-84
2022/09/27 06:26:04;;;;;;;13.23;3.03;;;;;;;7.95;100.00;97535.81;5062884;28;20020;-86
2022/09/27 06:28:38;;;;;;;9.88;2.85;;;;;;;7.91;100.00;97533.88;5060132;28;20032;-83
2022/09/27 06:31:07;;;;;;;10.25;3.33;;;;;;;8.17;100.00;97545.09;5064327;28;20029;-85
2022/09/27 06:33:34;;;;;;;15.35;4.07;;;;;;;8.20;100.00;97536.81;5064739;28;20032;-84
2022/09/27 06:36:07;;;;;;;10.23;3.35;;;;;;;8.31;100.00;97545.75;5063943;28;20352;-85
2022/09/27 06:38:33;;;;;;;7.40;2.92;;;;;;;8.47;100.00;97533.97;5062472;28;20395;-86
2022/09/27 06:41:05;;;;;;;14.27;2.88;;;;;;;8.52;100.00;97537.53;5061557;28;20025;-85
2022/09/27 06:43:32;;;;;;;12.98;3.13;;;;;;;8.52;100.00;97527.06;5060351;28;20119;-84
2022/09/27 06:46:11;;;;;;;13.75;3.00;;;;;;;8.48;100.00;97532.94;5061309;28;20028;-85
2022/09/27 06:48:38;;;;;;;11.40;2.80;;;;;;;8.35;100.00;97510.31;5064504;28;20478;-85
2022/09/27 06:51:04;;;;;;;13.32;2.85;;;;;;;8.24;100.00;97517.06;5063891;28;20067;-85
2022/09/27 06:53:30;;;;;;;8.88;2.35;;;;;;;8.07;100.00;97501.97;5065264;28;20033;-84
2022/09/27 06:56:00;;;;;;;7.30;2.58;;;;;;;8.19;100.00;97519.53;5062850;28;20024;-83
2022/09/27 07:01:10;;;;;;;10.32;2.40;;;;;;;8.49;100.00;97516.22;5063043;28;20051;-83
2022/09/27 07:03:40;;;;;;;11.35;2.10;;;;;;;8.61;100.00;97517.09;5064242;28;20059;-83
2022/09/27 07:06:10;;;;;;;9.32;4.05;;;;;;;8.63;100.00;97502.00;5064428;28;20060;-83
2022/09/27 07:08:37;;;;;;;9.98;3.10;;;;;;;8.85;100.00;97502.34;5064337;28;20287;-84
2022/09/27 07:11:07;;;;;;;6.90;2.55;;;;;;;9.02;100.00;97501.72;5064961;28;20478;-83
2022/09/27 07:13:35;;;;;;;6.82;2.70;;;;;;;9.18;100.00;97496.88;5066311;28;20120;-83
2022/09/27 07:16:02;;;;;;;12.52;2.63;;;;;;;9.27;100.00;97490.28;5065888;28;20036;-84
2022/09/27 07:18:27;;;;;;;9.77;2.40;;;;;;;9.28;100.00;97497.94;5063019;28;20466;-83
2022/09/27 07:20:53;;;;;;;8.35;2.35;;;;;;;9.26;100.00;97505.22;5062859;28;20119;-83
2022/09/27 07:23:19;;;;;;;11.70;3.55;;;;;;;9.28;100.00;97486.66;5061198;28;20056;-83
2022/09/27 07:25:47;;;;;;;12.50;3.45;;;;;;;9.60;100.00;97499.47;5062273;28;20025;-83
2022/09/27 07:28:15;;;;;;;11.90;2.70;;;;;;;9.73;100.00;97503.69;5062019;28;20086;-85
2022/09/27 07:30:42;;;;;;;10.63;2.80;;;;;;;9.85;100.00;97516.78;5064616;28;20042;-82
2022/09/27 07:33:08;;;;;;;14.43;2.88;;;;;;;9.76;100.00;97513.72;5061341;28;20025;-83
2022/09/27 07:35:38;;;;;;;6.53;2.35;;;;;;;9.72;100.00;97507.34;5061039;28;20040;-85
2022/09/27 07:38:07;;;;;;;12.82;3.28;;;;;;;9.92;100.00;97498.34;5062766;28;20108;-85
2022/09/27 07:40:36;;;;;;;8.88;2.95;;;;;;;9.78;100.00;97492.53;5060317;28;20033;-85
2022/09/27 07:43:05;;;;;;;10.98;2.67;;;;;;;9.77;100.00;97498.81;5064118;28;20033;-84
2022/09/27 07:45:31;;;;;;;12.30;2.80;;;;;;;10.08;100.00;97495.03;5063942;28;20074;-84
2022/09/27 07:47:56;;;;;;;12.23;3.20;;;;;;;10.13;100.00;97502.22;5059036;28;20036;-82
2022/09/27 07:50:22;;;;;;;15.63;3.80;;;;;;;9.97;100.00;97512.38;5057631;28;20090;-84
2022/09/27 07:52:51;;;;;;;9.38;2.67;;;;;;;10.28;100.00;97509.59;5061739;28;20037;-86
2022/09/27 07:55:18;;;;;;;9.02;2.65;;;;;;;10.52;100.00;97509.59;5066154;28;20033;-85
2022/09/27 07:57:44;;;;;;;10.05;2.63;;;;;;;10.27;100.00;97500.16;5061646;28;20059;-85
2022/09/27 08:00:15;;;;;;;10.30;2.58;;;;;;;10.27;100.00;97497.53;5061651;28;20063;-84
2022/09/27 08:02:42;;;;;;;10.23;2.60;;;;;;;9.96;100.00;97520.44;5060210;28;20028;-84
2022/09/27 08:05:09;;;;;;;13.93;3.03;;;;;;;9.98;100.00;97510.53;5063387;28;20033;-84
2022/09/27 08:07:35;;;;;;;8.38;2.20;;;;;;;9.76;100.00;97497.22;5065542;28;20052;-83
2022/09/27 08:10:00;;;;;;;6.50;2.40;;;;;;;9.93;100.00;97508.63;5061422;28;20029;-84
2022/09/27 08:12:26;;;;;;;9.38;2.63;;;;;;;9.94;100.00;97494.47;5059759;28;20070;-84
2022/09/27 08:14:53;;;;;;;7.20;2.47;;;;;;;9.66;100.00;97479.44;5066608;28;20037;-84
2022/09/27 08:17:19;;;;;;;7.85;2.95;;;;;;;9.92;100.00;97493.88;5063749;28;20025;-83
2022/09/27 08:19:48;;;;;;;7.20;2.47;;;;;;;10.09;100.00;97507.13;5058045;28;20056;-83
2022/09/27 08:22:15;;;;;;;8.50;2.22;;;;;;;10.10;100.00;97495.59;5058727;28;20037;-83
2022/09/27 08:24:41;;;;;;;9.80;2.47;;;;;;;9.96;100.00;97491.63;5062630;28;20116;-84
2022/09/27 08:27:07;;;;;;;11.60;2.50;;;;;;;10.08;100.00;97504.72;5060810;28;20032;-83
2022/09/27 08:29:33;;;;;;;7.78;2.72;;;;;;;10.18;100.00;97496.25;5057379;28;20032;-84
2022/09/27 08:31:59;;;;;;;9.10;2.05;;;;;;;9.89;100.00;97485.69;5058033;28;20033;-83
2022/09/27 08:34:27;;;;;;;14.45;2.85;;;;;;;10.06;100.00;97507.59;5063357;28;20024;-84
2022/09/27 08:36:54;;;;;;;6.70;2.40;;;;;;;10.18;100.00;97488.41;5057542;28;20105;-83
2022/09/27 08:39:23;;;;;;;9.68;2.40;;;;;;;10.17;100.00;97477.13;5042472;28;20033;-81
2022/09/27 08:42:03;;;;;;;9.75;1.88;;;;;;;10.49;100.00;97497.72;5058030;28;20108;-81
2022/09/27 08:44:53;;;;;;;7.28;1.90;;;;;;;10.68;100.00;97498.38;5058555;28;20035;-81
2022/09/27 08:47:34;;;;;;;4.97;2.17;;;;;;;10.79;100.00;97519.53;5058917;28;20124;-82
2022/09/27 08:50:02;;;;;;;6.97;2.08;;;;;;;10.86;100.00;97500.00;5060831;28;20024;-82
2022/09/27 08:52:40;;;;;;;9.35;2.35;;;;;;;10.73;100.00;97504.75;5057920;28;20052;-82
2022/09/27 08:55:19;;;;;;;11.15;2.30;;;;;;;10.93;100.00;97505.13;5059997;28;20025;-81
2022/09/27 08:57:55;;;;;;;4.97;2.55;;;;;;;10.94;100.00;97511.19;5056342;28;20471;-81
2022/09/27 09:00:21;;;;;;;5.28;2.00;;;;;;;10.77;100.00;97508.50;5061388;28;20129;-80
2022/09/27 09:02:47;;;;;;;9.93;1.98;;;;;;;10.71;100.00;97482.16;5060595;28;20032;-80
2022/09/27 09:05:34;;;;;;;11.02;2.05;;;;;;;10.97;100.00;97506.25;5056567;28;20032;-81
2022/09/27 09:08:34;;;;;;;7.15;1.83;;;;;;;11.06;100.00;97506.66;5061667;28;20031;-80
2022/09/27 09:14:15;;;;;;;8.85;1.92;;;;;;;11.15;100.00;97496.56;5060573;28;20048;-80
2022/09/27 09:16:56;;;;;;;8.20;2.30;;;;;;;10.77;100.00;97500.63;5055674;28;20124;-79
2022/09/27 09:19:27;;;;;;;15.65;2.58;;;;;;;10.86;100.00;97501.84;5058513;28;20064;-81
2022/09/27 09:22:14;;;;;;;8.90;2.30;;;;;;;10.81;100.00;97499.13;5061560;28;20444;-81
2022/09/27 09:24:52;;;;;;;9.90;2.20;;;;;;;10.94;100.00;97498.84;5062256;28;20025;-82
2022/09/27 09:27:30;;;;;;;10.38;2.15;;;;;;;10.91;100.00;97495.91;5056965;28;20028;-81
2022/09/27 09:30:17;;;;;;;6.03;2.00;;;;;;;11.09;100.00;97487.03;5054467;28;20032;-81
2022/09/27 09:33:07;;;;;;;8.80;2.28;;;;;;;11.04;100.00;97492.19;5059615;28;20528;-81
2022/09/27 09:35:44;;;;;;;5.75;2.00;;;;;;;11.12;100.00;97468.16;5059790;28;20112;-82
2022/09/27 09:38:24;;;;;;;5.20;1.90;;;;;;;11.03;100.00;97459.09;5060737;28;20497;-81
2022/09/27 09:41:04;;;;;;;5.45;1.70;;;;;;;11.29;100.00;97468.97;5061577;28;20036;-81
2022/09/27 09:43:54;;;;;;;9.35;1.80;;;;;;;11.48;100.00;97460.88;5059568;28;20075;-81
2022/09/27 09:46:27;;;;;;;5.55;1.83;;;;;;;11.48;100.00;97476.63;5059932;28;20029;-81
2022/09/27 09:49:11;;;;;;;4.00;1.60;;;;;;;11.39;100.00;97476.25;5059422;28;20033;-80
2022/09/27 09:51:51;;;;;;;4.28;1.73;;;;;;;11.60;100.00;97473.94;5060955;28;20487;-80
2022/09/27 09:54:36;;;;;;;5.80;1.70;;;;;;;11.86;100.00;97463.78;5059372;28;20052;-78
2022/09/27 09:57:22;;;;;;;4.85;1.48;;;;;;;12.11;100.00;97471.25;5060521;28;20153;-81
2022/09/27 10:00:20;;;;;;;3.83;1.48;;;;;;;12.08;100.00;97469.13;5058244;28;20028;-81
2022/09/27 10:02:48;;;;;;;11.07;2.47;;;;;;;11.95;100.00;97472.06;5027169;28;20087;-80
2022/09/27 10:05:25;;;;;;;7.68;1.85;;;;;;;11.88;100.00;97455.66;5063003;28;20036;-80
2022/09/27 10:07:53;;;;;;;7.75;2.13;;;;;;;11.64;100.00;97471.63;5066530;28;20028;-81
2022/09/27 10:10:20;;;;;;;7.50;1.88;;;;;;;11.51;100.00;97436.75;5064059;28;20089;-80
2022/09/27 10:12:46;;;;;;;3.13;1.65;;;;;;;11.71;100.00;97469.63;5044213;28;20479;-80
2022/09/27 10:15:21;;;;;;;12.38;1.83;;;;;;;11.64;100.00;97472.41;5065447;28;20079;-80
2022/09/27 10:17:53;;;;;;;5.55;1.70;;;;;;;11.64;100.00;97466.38;5065521;28;20119;-81
2022/09/27 10:20:57;;;;;;;7.43;1.80;;;;;;;11.89;100.00;97465.13;5062334;28;20048;-80
2022/09/27 10:23:24;;;;;;;11.00;2.25;;;;;;;11.92;100.00;97460.19;5064952;28;20454;-81
2022/09/27 10:25:58;;;;;;;5.93;1.90;;;;;;;12.40;100.00;97462.41;5062008;28;20025;-80
2022/09/27 10:28:44;;;;;;;5.35;2.05;;;;;;;12.44;100.00;97442.44;5063268;28;20035;-80
2022/09/27 10:31:13;;;;;;;5.25;2.20;;;;;;;12.66;100.00;97454.78;5060821;28;20037;-80
2022/09/27 10:33:53;;;;;;;12.20;2.10;;;;;;;12.82;100.00;97461.03;5064582;28;20040;-81
2022/09/27 10:36:31;;;;;;;6.80;2.65;;;;;;;12.82;100.00;97434.69;5063364;28;20471;-80
2022/09/27 10:38:59;;;;;;;6.75;1.90;;;;;;;13.06;100.00;97442.28;5064206;28;20032;-80
2022/09/27 10:41:32;;;;;;;5.00;1.83;;;;;;;13.06;100.00;97447.53;5066668;28;20074;-80
2022/09/27 10:44:18;;;;;;;;;;;;;;;12.79;98.53;97445.72;5062791;28;20036;-81
2022/09/27 10:46:48;;;;;;;10.13;2.35;;;;;;;12.43;97.71;97430.31;5060517;28;19912;-80
2022/09/27 10:49:25;;;;;;;8.10;1.70;;;;;;;12.85;98.50;97440.22;5060768;28;20372;-79
2022/09/27 10:52:28;;;;;;;3.15;1.70;;;;;;;12.80;97.54;97439.41;5058415;28;20406;-80
2022/09/27 10:54:56;;;;;;;4.32;1.80;;;;;;;13.16;97.23;97420.50;5044135;28;20076;-80
2022/09/27 10:57:27;;;;;;;4.65;1.90;;;;;;;13.33;96.11;97399.28;5061147;28;20052;-80
2022/09/27 11:00:01;;;;;;;5.68;2.00;;;;;;;13.51;94.88;97406.81;5064444;28;20104;-79
2022/09/27 11:02:31;;;;;;;5.53;2.38;;;;;;;13.56;94.70;97417.41;5059550;28;20039;-81
2022/09/27 11:05:02;;;;;;;5.75;1.95;;;;;;;13.49;94.01;97423.94;5057567;28;20025;-80
2022/09/27 11:07:27;;;;;;;8.23;4.03;;;;;;;13.59;94.01;97410.03;5063248;28;20390;-79
2022/09/27 11:10:01;;;;;;;6.03;2.20;;;;;;;13.90;94.18;97428.66;5062297;28;20029;-80
2022/09/27 11:12:29;;;;;;;3.67;2.10;;;;;;;14.08;94.17;97428.22;5059058;28;20025;-80
2022/09/27 11:14:54;;;;;;;4.55;1.90;;;;;;;13.98;92.20;97422.91;5062043;28;20051;-80
2022/09/27 11:18:05;;;;;;;7.65;1.95;;;;;;;13.78;92.12;97392.75;5061257;28;20029;-80
2022/09/27 11:20:43;;;;;;;4.53;2.10;;;;;;;13.71;92.98;97410.63;5064041;28;20036;-80
2022/09/27 11:24:10;;;;;;;5.97;2.05;;;;;;;13.69;94.13;97410.06;5063306;28;20091;-81
2022/09/27 11:26:54;;;;;;;7.18;2.05;;;;;;;13.96;94.30;97422.38;5022422;28;20053;-80
2022/09/27 11:29:31;;;;;;;11.35;2.20;;;;;;;13.87;95.20;97394.88;5066057;28;20032;-81
2022/09/27 11:32:08;;;;;;;3.92;2.55;;;;;;;14.04;95.51;97416.59;5062058;28;20032;-80
2022/09/27 11:34:36;;;;;;;6.07;1.98;;;;;;;13.76;94.48;97400.13;5059671;28;20104;-80
2022/09/27 11:37:17;;;;;;;10.02;2.70;;;;;;;13.63;94.76;97405.84;5068333;28;20048;-80
2022/09/27 11:39:54;;;;;;;7.55;2.85;;;;;;;13.87;94.75;97408.06;5059181;28;20040;-80
2022/09/27 11:42:41;;;;;;;4.75;1.80;;;;;;;13.31;94.43;97399.53;5064128;28;20029;-80
2022/09/27 11:45:35;;;;;;;4.00;2.33;;;;;;;13.26;92.13;97388.94;5066972;28;20226;-80
2022/09/27 11:48:11;;;;;;;2.78;1.60;;;;;;;13.40;92.70;97382.19;5058780;28;20032;-80
2022/09/27 11:51:13;;;;;;;8.13;2.30;;;;;;;13.87;92.56;97403.59;5064695;28;20040;-80
2022/09/27 11:53:57;;;;;;;11.18;2.20;;;;;;;14.28;92.78;97398.50;5062478;28;20549;-80
2022/09/27 11:56:34;;;;;;;7.25;2.28;;;;;;;14.36;91.74;97391.91;5061260;28;20039;-80
2022/09/27 11:59:12;;;;;;;3.95;2.13;;;;;;;13.98;90.16;97381.47;5044051;28;20029;-80
2022/09/27 12:01:55;;;;;;;4.13;2.17;;;;;;;13.74;91.09;97390.88;5054956;28;20044;-80